Cleveland, Ohio
Traffic Map
Current Weather Conditions
Cleveland, Ohio
Clear
Clear
77°
Feels Like: 79°
Wind Chill: 77° Ceiling: Unl
Heat Index: 79° Visibility: 10mi
Dew Point: 64° Wind: 14mph
Humidity: 64% Direction: 280° (W)
Pressure: 29.91in Gusts: 0mph
Raw Report DataKBKL 300753Z 28012KT 10SM CLR 25/18 A2991 RMK AO2 SLP124 T02500178 $
Traffic Incident Summary
Active as of:
Severity:
Category:
InformationThere was an issue retrieving the traffic information for this location. Please try a different location or try again shortly.
Advertisements
Track Severe Weather on mobile